Zim Alabama — V7VD5 — position and weather

sailwx.info

Track history (hours):
 
Tides and Currents Weather Stations Pressure Air Temp Water Temp Dewpoint Dewpoint Depression Visibility Wind Speed Wind Dir Waves Ship Positions

Zim Alabama

Last reported at 2018-Jun-18 16:47 UTC. Time now 2018-Jun-19 08:02 UTC.
Position N 38°50' W 073°60'.

Length 261 m; draft 11.5 m.

Type: Ship (hazmat cat A). MMSI: 538004094.

Date/timePositionNaut miles runAvg speedWind from/ knotsBaromVisibWave heightAir tempDewpointWater temp
2018-Jun-18 16:47N 38°50' W 073°60'3013.5
2018-Jun-18 14:34N 39°20' W 073°54'813.7
2018-Jun-18 14:00N 39°28' W 073°53'1113.7
2018-Jun-18 13:14N 39°38' W 073°53'313.5
2018-Jun-18 12:59N 39°42' W 073°52'613.5
2018-Jun-18 12:30N 39°48' W 073°52'713.6
2018-Jun-18 12:00N 39°55' W 073°51'713.7
2018-Jun-18 11:30N 40°02' W 073°50'713.6
2018-Jun-18 11:00N 40°08' W 073°50'713.3
2018-Jun-18 10:30N 40°15' W 073°49'713.2
2018-Jun-18 10:00N 40°22' W 073°49'5 9.7
2018-Jun-18 09:30N 40°27' W 073°50'814.9
2018-Jun-18 09:00N 40°30' W 073°58'714.4
2018-Jun-18 08:30N 40°37' W 074°03'4 7.6
2018-Jun-18 08:01N 40°39' W 074°07'2 3.4
2018-Jun-18 07:30N 40°40' W 074°08'0 0.5
2018-Jun-18 06:57N 40°40' W 074°08'0 0.0
2018-Jun-18 04:24N 40°40' W 074°08'0 0.0
2018-Jun-18 03:36N 40°40' W 074°08'0 0.0
2018-Jun-18 03:06N 40°40' W 074°08'0 0.0
2018-Jun-18 02:45N 40°40' W 074°08'0 0.0
2018-Jun-18 02:12N 40°40' W 074°08'0 0.0
2018-Jun-18 01:48N 40°40' W 074°08'0 0.0
2018-Jun-18 01:21N 40°40' W 074°08'0 0.0
2018-Jun-18 00:54N 40°40' W 074°08'0 0.0
2018-Jun-18 00:30N 40°40' W 074°08'0 0.0
2018-Jun-18 00:00N 40°40' W 074°08'0 0.0
2018-Jun-17 23:30N 40°40' W 074°08'0 0.0
2018-Jun-17 22:54N 40°40' W 074°08'0 0.0
2018-Jun-17 22:18N 40°40' W 074°08'0 0.0
2018-Jun-17 21:57N 40°40' W 074°08'0 0.0
2018-Jun-17 21:12N 40°40' W 074°08'0 0.0
2018-Jun-17 20:51N 40°40' W 074°08'0 0.0
2018-Jun-17 16:42N 40°40' W 074°08'0 0.0
2018-Jun-17 16:21N 40°40' W 074°08'0 0.0
2018-Jun-17 15:57N 40°40' W 074°08'0 0.0
2018-Jun-17 15:24N 40°40' W 074°08'0 0.0
2018-Jun-17 14:54N 40°40' W 074°08'0 0.0
2018-Jun-17 14:12N 40°40' W 074°08'0 0.0
2018-Jun-17 13:54N 40°40' W 074°08'0 0.0
2018-Jun-17 13:30N 40°40' W 074°08'0 0.0
2018-Jun-17 13:00N 40°40' W 074°08'0 0.0
2018-Jun-17 11:27N 40°40' W 074°08'0 0.0
2018-Jun-17 10:54N 40°40' W 074°08'0 0.0
2018-Jun-17 10:27N 40°40' W 074°08'0 0.0
2018-Jun-17 10:00N 40°40' W 074°08'0 0.4
2018-Jun-17 09:30N 40°40' W 074°08'2 3.3
2018-Jun-17 09:00N 40°39' W 074°08'3 6.4
2018-Jun-17 08:30N 40°38' W 074°03'510.4
2018-Jun-17 08:00N 40°33' W 074°02'613.0
2018-Jun-17 07:30N 40°29' W 073°55'8815.0
2018-Jun-17 01:36N 40°31' W 071°59'417.3
2018-Jun-17 01:20N 40°31' W 071°53'  
2018-Jun-08 22:34N 36°01' W 005°27'115.6
2018-Jun-08 22:30N 36°01' W 005°26'815.1
2018-Jun-08 22:00N 36°02' W 005°16'  
Track history (hours):
 
Tides and Currents Weather Stations Pressure Air Temp Water Temp Dewpoint Dewpoint Depression Visibility Wind Speed Wind Dir Waves Ship Positions

Zim Alabama

Last reported at 2018-Jun-18 16:47 UTC. Time now 2018-Jun-19 08:02 UTC.
Position N 38°50' W 073°60'.

Length 261 m; draft 11.5 m.

Type: Ship (hazmat cat A). MMSI: 538004094.

Date/timePositionNaut miles runAvg speedWind from/ knotsBaromVisibWave heightAir tempDewpointWater temp
2018-Jun-18 16:47N 38°50' W 073°60'3013.5
2018-Jun-18 14:34N 39°20' W 073°54'813.7
2018-Jun-18 14:00N 39°28' W 073°53'1113.7
2018-Jun-18 13:14N 39°38' W 073°53'313.5
2018-Jun-18 12:59N 39°42' W 073°52'613.5
2018-Jun-18 12:30N 39°48' W 073°52'713.6
2018-Jun-18 12:00N 39°55' W 073°51'713.7
2018-Jun-18 11:30N 40°02' W 073°50'713.6
2018-Jun-18 11:00N 40°08' W 073°50'713.3
2018-Jun-18 10:30N 40°15' W 073°49'713.2
2018-Jun-18 10:00N 40°22' W 073°49'5 9.7
2018-Jun-18 09:30N 40°27' W 073°50'814.9
2018-Jun-18 09:00N 40°30' W 073°58'714.4
2018-Jun-18 08:30N 40°37' W 074°03'4 7.6
2018-Jun-18 08:01N 40°39' W 074°07'2 3.4
2018-Jun-18 07:30N 40°40' W 074°08'0 0.5
2018-Jun-18 06:57N 40°40' W 074°08'0 0.0
2018-Jun-18 04:24N 40°40' W 074°08'0 0.0
2018-Jun-18 03:36N 40°40' W 074°08'0 0.0
2018-Jun-18 03:06N 40°40' W 074°08'0 0.0
2018-Jun-18 02:45N 40°40' W 074°08'0 0.0
2018-Jun-18 02:12N 40°40' W 074°08'0 0.0
2018-Jun-18 01:48N 40°40' W 074°08'0 0.0
2018-Jun-18 01:21N 40°40' W 074°08'0 0.0
2018-Jun-18 00:54N 40°40' W 074°08'0 0.0
2018-Jun-18 00:30N 40°40' W 074°08'0 0.0
2018-Jun-18 00:00N 40°40' W 074°08'0 0.0
2018-Jun-17 23:30N 40°40' W 074°08'0 0.0
2018-Jun-17 22:54N 40°40' W 074°08'0 0.0
2018-Jun-17 22:18N 40°40' W 074°08'0 0.0
2018-Jun-17 21:57N 40°40' W 074°08'0 0.0
2018-Jun-17 21:12N 40°40' W 074°08'0 0.0
2018-Jun-17 20:51N 40°40' W 074°08'0 0.0
2018-Jun-17 16:42N 40°40' W 074°08'0 0.0
2018-Jun-17 16:21N 40°40' W 074°08'0 0.0
2018-Jun-17 15:57N 40°40' W 074°08'0 0.0
2018-Jun-17 15:24N 40°40' W 074°08'0 0.0
2018-Jun-17 14:54N 40°40' W 074°08'0 0.0
2018-Jun-17 14:12N 40°40' W 074°08'0 0.0
2018-Jun-17 13:54N 40°40' W 074°08'0 0.0
2018-Jun-17 13:30N 40°40' W 074°08'0 0.0
2018-Jun-17 13:00N 40°40' W 074°08'0 0.0
2018-Jun-17 11:27N 40°40' W 074°08'0 0.0
2018-Jun-17 10:54N 40°40' W 074°08'0 0.0
2018-Jun-17 10:27N 40°40' W 074°08'0 0.0
2018-Jun-17 10:00N 40°40' W 074°08'0 0.4
2018-Jun-17 09:30N 40°40' W 074°08'2 3.3
2018-Jun-17 09:00N 40°39' W 074°08'3 6.4
2018-Jun-17 08:30N 40°38' W 074°03'510.4
2018-Jun-17 08:00N 40°33' W 074°02'613.0
2018-Jun-17 07:30N 40°29' W 073°55'8815.0
2018-Jun-17 01:36N 40°31' W 071°59'417.3
2018-Jun-17 01:20N 40°31' W 071°53'  
2018-Jun-08 22:34N 36°01' W 005°27'115.6
2018-Jun-08 22:30N 36°01' W 005°26'815.1
2018-Jun-08 22:00N 36°02' W 005°16'  

Dump ship's entire track history